Audubon, Pennsylvania
Current Conditions -  °F | °C
As of 9:55 PM on Saturday 25 Oct 2014 (Local Time) from KLOM Reporting Station
Scattered Clouds Scattered Clouds  
Wind Chill: 17°   Ceiling: Unl
Heat Index: 17°   Visibility: 10mi
Dew Point:   Wind: 6mph
Humidity: 52%   Direction: 230°SW
Pressure: 29.66"   Gusts: NA
Location:  40.13°N, 75.43°W
Report Text: KLOM 260155Z AUTO 23005KT 10SM SCT060 SCT070 17/07 A2966 RMK AO1
Loading
Personal Weather Stations






























Interactive Weather Map
Tropical Storm Tracking
New forecast layout! Learn more

10-Day Weather Forecast

Advertisements
Track Severe Weather on mobile